Cloquet, Minnesota
Current Conditions -  °F | °C
As of 7:16 AM on Thursday 27 Nov 2014 (Local Time) from KCOQ Reporting Station
Clear Clear  
Wind Chill: -24°   Ceiling: Unl
Heat Index: -9°   Visibility: 10mi
Dew Point: -15°   Wind: 7mph
Humidity: 77%   Direction: 310°NW
Pressure: 30.41"   Gusts: NA
Location:  46.71°N, 92.48°W
Report Text: KCOQ 271316Z AUTO 31006KT 10SM CLR M23/M26 A3041 RMK AO2
Loading
Personal Weather Stations






























Interactive Weather Map New forecast layout! Learn more

10-Day Weather Forecast

Advertisements
Track Severe Weather on mobile